sensor_id;sensor_type;location;lat;lon;timestamp;P1;durP1;ratioP1;P2;durP2;ratioP2
9880;SDS011;4979;51.014;6.678;2023-05-14T00:00:48;7.78;;;7.00;;
9880;SDS011;4979;51.014;6.678;2023-05-14T00:03:13;11.48;;;8.07;;
9880;SDS011;4979;51.014;6.678;2023-05-14T00:05:39;11.50;;;7.85;;
9880;SDS011;4979;51.014;6.678;2023-05-14T00:08:05;9.70;;;7.85;;
9880;SDS011;4979;51.014;6.678;2023-05-14T00:10:30;10.02;;;7.28;;
9880;SDS011;4979;51.014;6.678;2023-05-14T00:12:56;16.98;;;7.50;;
9880;SDS011;4979;51.014;6.678;2023-05-14T00:15:21;9.02;;;7.40;;
9880;SDS011;4979;51.014;6.678;2023-05-14T00:17:47;10.15;;;6.63;;
9880;SDS011;4979;51.014;6.678;2023-05-14T00:20:12;10.15;;;7.35;;
9880;SDS011;4979;51.014;6.678;2023-05-14T00:22:38;8.63;;;6.30;;
9880;SDS011;4979;51.014;6.678;2023-05-14T00:25:04;10.10;;;6.53;;
9880;SDS011;4979;51.014;6.678;2023-05-14T00:27:31;10.25;;;7.05;;
9880;SDS011;4979;51.014;6.678;2023-05-14T00:29:56;8.85;;;7.20;;
9880;SDS011;4979;51.014;6.678;2023-05-14T00:32:22;14.32;;;6.63;;
9880;SDS011;4979;51.014;6.678;2023-05-14T00:34:48;10.23;;;7.47;;
9880;SDS011;4979;51.014;6.678;2023-05-14T00:37:14;11.00;;;7.10;;
9880;SDS011;4979;51.014;6.678;2023-05-14T00:39:39;8.88;;;7.07;;
9880;SDS011;4979;51.014;6.678;2023-05-14T00:42:05;10.18;;;7.07;;
9880;SDS011;4979;51.014;6.678;2023-05-14T00:44:31;10.70;;;6.65;;
9880;SDS011;4979;51.014;6.678;2023-05-14T00:46:57;8.50;;;6.65;;
9880;SDS011;4979;51.014;6.678;2023-05-14T00:49:23;6.57;;;5.97;;
9880;SDS011;4979;51.014;6.678;2023-05-14T00:51:49;11.15;;;6.88;;
9880;SDS011;4979;51.014;6.678;2023-05-14T00:54:16;8.02;;;6.63;;
9880;SDS011;4979;51.014;6.678;2023-05-14T00:56:45;9.57;;;7.20;;
9880;SDS011;4979;51.014;6.678;2023-05-14T00:59:12;12.32;;;7.38;;
9880;SDS011;4979;51.014;6.678;2023-05-14T01:01:38;12.73;;;8.52;;
9880;SDS011;4979;51.014;6.678;2023-05-14T01:04:03;9.77;;;7.97;;
9880;SDS011;4979;51.014;6.678;2023-05-14T01:12:26;13.50;;;9.73;;
9880;SDS011;4979;51.014;6.678;2023-05-14T01:17:25;19.00;;;9.38;;
9880;SDS011;4979;51.014;6.678;2023-05-14T01:19:54;12.32;;;10.32;;
9880;SDS011;4979;51.014;6.678;2023-05-14T01:22:20;19.25;;;9.77;;
9880;SDS011;4979;51.014;6.678;2023-05-14T01:24:46;12.48;;;10.52;;
9880;SDS011;4979;51.014;6.678;2023-05-14T01:27:24;11.02;;;9.88;;
9880;SDS011;4979;51.014;6.678;2023-05-14T01:30:41;13.52;;;11.27;;
9880;SDS011;4979;51.014;6.678;2023-05-14T01:32:40;13.07;;;11.25;;
9880;SDS011;4979;51.014;6.678;2023-05-14T01:35:08;15.02;;;12.35;;
9880;SDS011;4979;51.014;6.678;2023-05-14T01:37:34;15.50;;;12.20;;
9880;SDS011;4979;51.014;6.678;2023-05-14T01:40:01;15.00;;;10.70;;
9880;SDS011;4979;51.014;6.678;2023-05-14T01:42:29;13.82;;;9.85;;
9880;SDS011;4979;51.014;6.678;2023-05-14T01:44:55;13.25;;;8.98;;
9880;SDS011;4979;51.014;6.678;2023-05-14T01:47:20;10.75;;;9.30;;
9880;SDS011;4979;51.014;6.678;2023-05-14T01:49:46;11.85;;;9.10;;
9880;SDS011;4979;51.014;6.678;2023-05-14T01:52:12;10.73;;;8.43;;
9880;SDS011;4979;51.014;6.678;2023-05-14T01:54:38;11.52;;;9.07;;
9880;SDS011;4979;51.014;6.678;2023-05-14T01:57:03;12.60;;;10.73;;
9880;SDS011;4979;51.014;6.678;2023-05-14T01:59:29;13.10;;;10.65;;
9880;SDS011;4979;51.014;6.678;2023-05-14T02:01:55;13.65;;;10.88;;
9880;SDS011;4979;51.014;6.678;2023-05-14T02:04:20;14.93;;;12.23;;
9880;SDS011;4979;51.014;6.678;2023-05-14T02:06:46;11.77;;;9.43;;
9880;SDS011;4979;51.014;6.678;2023-05-14T02:09:11;14.80;;;11.27;;
9880;SDS011;4979;51.014;6.678;2023-05-14T02:11:37;13.38;;;11.52;;
9880;SDS011;4979;51.014;6.678;2023-05-14T02:14:02;11.52;;;9.45;;
9880;SDS011;4979;51.014;6.678;2023-05-14T02:16:28;16.38;;;11.40;;
9880;SDS011;4979;51.014;6.678;2023-05-14T02:18:53;12.40;;;10.40;;
9880;SDS011;4979;51.014;6.678;2023-05-14T02:21:19;10.65;;;9.55;;
9880;SDS011;4979;51.014;6.678;2023-05-14T02:23:45;11.98;;;10.38;;
9880;SDS011;4979;51.014;6.678;2023-05-14T02:26:12;12.70;;;10.57;;
9880;SDS011;4979;51.014;6.678;2023-05-14T02:28:37;12.40;;;10.48;;
9880;SDS011;4979;51.014;6.678;2023-05-14T02:31:03;13.93;;;10.77;;
9880;SDS011;4979;51.014;6.678;2023-05-14T02:33:29;15.38;;;10.63;;
9880;SDS011;4979;51.014;6.678;2023-05-14T02:35:54;13.18;;;9.90;;
9880;SDS011;4979;51.014;6.678;2023-05-14T02:38:20;11.60;;;10.40;;
9880;SDS011;4979;51.014;6.678;2023-05-14T02:40:46;10.73;;;9.57;;
9880;SDS011;4979;51.014;6.678;2023-05-14T02:43:12;13.73;;;10.93;;
9880;SDS011;4979;51.014;6.678;2023-05-14T02:45:37;16.20;;;12.18;;
9880;SDS011;4979;51.014;6.678;2023-05-14T02:48:03;14.63;;;10.90;;
9880;SDS011;4979;51.014;6.678;2023-05-14T02:50:29;10.80;;;9.70;;
9880;SDS011;4979;51.014;6.678;2023-05-14T02:52:54;13.30;;;10.35;;
9880;SDS011;4979;51.014;6.678;2023-05-14T02:55:20;15.52;;;10.60;;
9880;SDS011;4979;51.014;6.678;2023-05-14T02:57:45;15.68;;;11.32;;
9880;SDS011;4979;51.014;6.678;2023-05-14T03:00:11;15.48;;;10.93;;
9880;SDS011;4979;51.014;6.678;2023-05-14T03:02:37;12.07;;;9.98;;
9880;SDS011;4979;51.014;6.678;2023-05-14T03:05:03;10.70;;;9.55;;
9880;SDS011;4979;51.014;6.678;2023-05-14T03:07:28;15.10;;;10.07;;
9880;SDS011;4979;51.014;6.678;2023-05-14T03:09:54;16.02;;;11.40;;
9880;SDS011;4979;51.014;6.678;2023-05-14T03:12:20;12.25;;;9.95;;
9880;SDS011;4979;51.014;6.678;2023-05-14T03:14:46;14.98;;;9.93;;
9880;SDS011;4979;51.014;6.678;2023-05-14T03:17:12;15.60;;;10.60;;
9880;SDS011;4979;51.014;6.678;2023-05-14T03:19:37;14.55;;;10.90;;
9880;SDS011;4979;51.014;6.678;2023-05-14T03:22:03;17.58;;;12.02;;
9880;SDS011;4979;51.014;6.678;2023-05-14T03:24:28;12.60;;;11.30;;
9880;SDS011;4979;51.014;6.678;2023-05-14T03:26:55;15.18;;;11.85;;
9880;SDS011;4979;51.014;6.678;2023-05-14T03:29:20;14.43;;;12.00;;
9880;SDS011;4979;51.014;6.678;2023-05-14T03:31:46;16.10;;;11.02;;
9880;SDS011;4979;51.014;6.678;2023-05-14T03:34:12;15.40;;;11.52;;
9880;SDS011;4979;51.014;6.678;2023-05-14T03:36:38;13.63;;;10.88;;
9880;SDS011;4979;51.014;6.678;2023-05-14T03:39:04;16.65;;;14.73;;
9880;SDS011;4979;51.014;6.678;2023-05-14T03:41:33;17.55;;;13.82;;
9880;SDS011;4979;51.014;6.678;2023-05-14T03:43:59;15.88;;;13.55;;
9880;SDS011;4979;51.014;6.678;2023-05-14T03:46:25;12.82;;;11.52;;
9880;SDS011;4979;51.014;6.678;2023-05-14T03:48:51;17.23;;;12.90;;
9880;SDS011;4979;51.014;6.678;2023-05-14T03:51:16;17.73;;;13.63;;
9880;SDS011;4979;51.014;6.678;2023-05-14T03:53:42;18.52;;;14.07;;
9880;SDS011;4979;51.014;6.678;2023-05-14T03:56:07;18.80;;;15.07;;
9880;SDS011;4979;51.014;6.678;2023-05-14T03:58:33;20.33;;;12.68;;
9880;SDS011;4979;51.014;6.678;2023-05-14T04:00:58;17.50;;;13.60;;
9880;SDS011;4979;51.014;6.678;2023-05-14T04:03:24;16.00;;;13.38;;
9880;SDS011;4979;51.014;6.678;2023-05-14T04:05:50;13.95;;;12.30;;
9880;SDS011;4979;51.014;6.678;2023-05-14T04:08:15;14.35;;;12.85;;
9880;SDS011;4979;51.014;6.678;2023-05-14T04:10:41;10.63;;;9.40;;
9880;SDS011;4979;51.014;6.678;2023-05-14T04:13:07;12.02;;;10.18;;
9880;SDS011;4979;51.014;6.678;2023-05-14T04:15:33;12.02;;;10.57;;
9880;SDS011;4979;51.014;6.678;2023-05-14T04:17:59;17.83;;;11.70;;
9880;SDS011;4979;51.014;6.678;2023-05-14T04:20:25;13.32;;;10.63;;
9880;SDS011;4979;51.014;6.678;2023-05-14T04:22:51;10.63;;;9.52;;
9880;SDS011;4979;51.014;6.678;2023-05-14T04:25:17;12.07;;;10.20;;
9880;SDS011;4979;51.014;6.678;2023-05-14T04:27:43;14.10;;;10.48;;
9880;SDS011;4979;51.014;6.678;2023-05-14T04:30:09;11.65;;;10.45;;
9880;SDS011;4979;51.014;6.678;2023-05-14T04:32:35;10.73;;;9.63;;
9880;SDS011;4979;51.014;6.678;2023-05-14T04:35:01;12.48;;;10.25;;
9880;SDS011;4979;51.014;6.678;2023-05-14T04:37:26;11.70;;;10.48;;
9880;SDS011;4979;51.014;6.678;2023-05-14T04:39:52;12.48;;;9.60;;
9880;SDS011;4979;51.014;6.678;2023-05-14T04:42:17;12.60;;;10.88;;
9880;SDS011;4979;51.014;6.678;2023-05-14T04:44:43;13.07;;;11.77;;
9880;SDS011;4979;51.014;6.678;2023-05-14T04:47:08;17.85;;;11.90;;
9880;SDS011;4979;51.014;6.678;2023-05-14T04:49:34;12.60;;;11.18;;
9880;SDS011;4979;51.014;6.678;2023-05-14T04:52:00;14.68;;;11.60;;
9880;SDS011;4979;51.014;6.678;2023-05-14T04:54:26;13.73;;;10.52;;
9880;SDS011;4979;51.014;6.678;2023-05-14T04:56:52;14.63;;;10.98;;
9880;SDS011;4979;51.014;6.678;2023-05-14T04:59:19;16.30;;;12.07;;
9880;SDS011;4979;51.014;6.678;2023-05-14T05:01:45;13.45;;;11.52;;
9880;SDS011;4979;51.014;6.678;2023-05-14T05:04:11;15.93;;;11.65;;
9880;SDS011;4979;51.014;6.678;2023-05-14T05:06:37;17.27;;;11.75;;
9880;SDS011;4979;51.014;6.678;2023-05-14T05:09:02;13.32;;;11.13;;
9880;SDS011;4979;51.014;6.678;2023-05-14T05:11:28;14.50;;;10.65;;
9880;SDS011;4979;51.014;6.678;2023-05-14T05:13:54;14.18;;;10.38;;
9880;SDS011;4979;51.014;6.678;2023-05-14T05:16:19;15.02;;;10.55;;
9880;SDS011;4979;51.014;6.678;2023-05-14T05:18:45;16.02;;;10.60;;
9880;SDS011;4979;51.014;6.678;2023-05-14T05:21:11;18.75;;;11.30;;
9880;SDS011;4979;51.014;6.678;2023-05-14T05:23:36;20.00;;;11.25;;
9880;SDS011;4979;51.014;6.678;2023-05-14T05:26:02;19.67;;;10.55;;
9880;SDS011;4979;51.014;6.678;2023-05-14T05:28:28;13.35;;;10.50;;
9880;SDS011;4979;51.014;6.678;2023-05-14T05:30:53;21.73;;;11.45;;
9880;SDS011;4979;51.014;6.678;2023-05-14T05:33:19;18.10;;;11.88;;
9880;SDS011;4979;51.014;6.678;2023-05-14T05:35:44;25.13;;;12.88;;
9880;SDS011;4979;51.014;6.678;2023-05-14T05:38:10;17.75;;;11.77;;
9880;SDS011;4979;51.014;6.678;2023-05-14T05:40:35;14.95;;;11.30;;
9880;SDS011;4979;51.014;6.678;2023-05-14T05:43:01;14.65;;;11.75;;
9880;SDS011;4979;51.014;6.678;2023-05-14T05:45:27;24.48;;;12.88;;
9880;SDS011;4979;51.014;6.678;2023-05-14T05:47:52;23.85;;;11.90;;
9880;SDS011;4979;51.014;6.678;2023-05-14T05:50:18;18.70;;;12.15;;
9880;SDS011;4979;51.014;6.678;2023-05-14T05:52:43;18.45;;;13.05;;
9880;SDS011;4979;51.014;6.678;2023-05-14T05:55:09;18.23;;;13.60;;
9880;SDS011;4979;51.014;6.678;2023-05-14T05:57:35;23.17;;;13.60;;
9880;SDS011;4979;51.014;6.678;2023-05-14T06:00:00;20.45;;;14.40;;
9880;SDS011;4979;51.014;6.678;2023-05-14T06:02:36;18.83;;;14.15;;
9880;SDS011;4979;51.014;6.678;2023-05-14T06:05:02;16.73;;;15.02;;
9880;SDS011;4979;51.014;6.678;2023-05-14T06:07:27;16.92;;;14.88;;
9880;SDS011;4979;51.014;6.678;2023-05-14T06:09:53;16.30;;;14.57;;
9880;SDS011;4979;51.014;6.678;2023-05-14T06:12:18;19.25;;;15.27;;
9880;SDS011;4979;51.014;6.678;2023-05-14T06:14:45;22.20;;;15.10;;
9880;SDS011;4979;51.014;6.678;2023-05-14T06:17:11;18.95;;;16.20;;
9880;SDS011;4979;51.014;6.678;2023-05-14T06:19:36;22.25;;;16.13;;
9880;SDS011;4979;51.014;6.678;2023-05-14T06:22:02;22.98;;;17.38;;
9880;SDS011;4979;51.014;6.678;2023-05-14T06:24:28;24.52;;;17.48;;
9880;SDS011;4979;51.014;6.678;2023-05-14T06:26:53;23.83;;;16.95;;
9880;SDS011;4979;51.014;6.678;2023-05-14T06:29:19;26.20;;;17.63;;
9880;SDS011;4979;51.014;6.678;2023-05-14T06:31:44;21.23;;;16.80;;
9880;SDS011;4979;51.014;6.678;2023-05-14T06:34:10;22.55;;;16.75;;
9880;SDS011;4979;51.014;6.678;2023-05-14T06:36:36;21.25;;;16.65;;
9880;SDS011;4979;51.014;6.678;2023-05-14T06:39:01;22.42;;;17.50;;
9880;SDS011;4979;51.014;6.678;2023-05-14T06:41:27;17.73;;;15.82;;
9880;SDS011;4979;51.014;6.678;2023-05-14T06:43:53;24.58;;;17.35;;
9880;SDS011;4979;51.014;6.678;2023-05-14T06:46:19;22.40;;;17.60;;
9880;SDS011;4979;51.014;6.678;2023-05-14T06:48:45;27.75;;;17.20;;
9880;SDS011;4979;51.014;6.678;2023-05-14T06:51:11;21.58;;;16.75;;
9880;SDS011;4979;51.014;6.678;2023-05-14T06:53:37;24.73;;;17.40;;
9880;SDS011;4979;51.014;6.678;2023-05-14T06:56:03;19.27;;;16.17;;
9880;SDS011;4979;51.014;6.678;2023-05-14T06:58:29;23.60;;;17.85;;
9880;SDS011;4979;51.014;6.678;2023-05-14T07:00:54;20.83;;;16.75;;
9880;SDS011;4979;51.014;6.678;2023-05-14T07:03:20;22.30;;;18.02;;
9880;SDS011;4979;51.014;6.678;2023-05-14T07:05:46;23.73;;;17.63;;
9880;SDS011;4979;51.014;6.678;2023-05-14T07:08:12;22.05;;;17.67;;
9880;SDS011;4979;51.014;6.678;2023-05-14T07:10:37;22.55;;;18.10;;
9880;SDS011;4979;51.014;6.678;2023-05-14T07:13:03;24.00;;;17.05;;
9880;SDS011;4979;51.014;6.678;2023-05-14T07:15:29;26.90;;;18.33;;
9880;SDS011;4979;51.014;6.678;2023-05-14T07:17:55;28.17;;;18.23;;
9880;SDS011;4979;51.014;6.678;2023-05-14T07:20:21;24.23;;;18.27;;
9880;SDS011;4979;51.014;6.678;2023-05-14T07:22:48;27.13;;;18.42;;
9880;SDS011;4979;51.014;6.678;2023-05-14T07:25:14;23.38;;;18.02;;
9880;SDS011;4979;51.014;6.678;2023-05-14T07:27:39;22.48;;;18.13;;
9880;SDS011;4979;51.014;6.678;2023-05-14T07:30:06;23.58;;;18.23;;
9880;SDS011;4979;51.014;6.678;2023-05-14T07:32:32;26.38;;;17.30;;
9880;SDS011;4979;51.014;6.678;2023-05-14T07:34:57;23.48;;;17.90;;
9880;SDS011;4979;51.014;6.678;2023-05-14T07:37:23;18.80;;;15.93;;
9880;SDS011;4979;51.014;6.678;2023-05-14T07:39:50;22.52;;;16.50;;
9880;SDS011;4979;51.014;6.678;2023-05-14T07:42:16;24.20;;;17.42;;
9880;SDS011;4979;51.014;6.678;2023-05-14T07:44:42;19.63;;;16.95;;
9880;SDS011;4979;51.014;6.678;2023-05-14T07:47:08;18.02;;;16.00;;
9880;SDS011;4979;51.014;6.678;2023-05-14T07:49:34;19.63;;;17.55;;
9880;SDS011;4979;51.014;6.678;2023-05-14T07:52:00;25.52;;;17.45;;
9880;SDS011;4979;51.014;6.678;2023-05-14T07:54:26;24.58;;;19.20;;
9880;SDS011;4979;51.014;6.678;2023-05-14T07:56:52;27.55;;;20.58;;
9880;SDS011;4979;51.014;6.678;2023-05-14T07:59:18;22.05;;;17.65;;
9880;SDS011;4979;51.014;6.678;2023-05-14T08:01:43;21.13;;;16.40;;
9880;SDS011;4979;51.014;6.678;2023-05-14T08:04:09;20.63;;;16.65;;
9880;SDS011;4979;51.014;6.678;2023-05-14T08:06:40;21.02;;;16.98;;
9880;SDS011;4979;51.014;6.678;2023-05-14T08:09:06;24.60;;;18.65;;
9880;SDS011;4979;51.014;6.678;2023-05-14T08:11:32;18.67;;;16.05;;
9880;SDS011;4979;51.014;6.678;2023-05-14T08:13:58;16.63;;;14.82;;
9880;SDS011;4979;51.014;6.678;2023-05-14T08:16:24;16.83;;;14.07;;
9880;SDS011;4979;51.014;6.678;2023-05-14T08:18:50;16.80;;;14.32;;
9880;SDS011;4979;51.014;6.678;2023-05-14T08:21:15;15.45;;;13.93;;
9880;SDS011;4979;51.014;6.678;2023-05-14T08:23:41;17.45;;;14.23;;
9880;SDS011;4979;51.014;6.678;2023-05-14T08:26:07;18.67;;;13.77;;
9880;SDS011;4979;51.014;6.678;2023-05-14T08:28:33;16.38;;;13.85;;
9880;SDS011;4979;51.014;6.678;2023-05-14T08:30:58;17.05;;;14.80;;
9880;SDS011;4979;51.014;6.678;2023-05-14T08:33:24;17.27;;;14.25;;
9880;SDS011;4979;51.014;6.678;2023-05-14T08:35:51;16.52;;;14.10;;
9880;SDS011;4979;51.014;6.678;2023-05-14T08:38:17;16.85;;;14.15;;
9880;SDS011;4979;51.014;6.678;2023-05-14T08:40:51;16.30;;;13.52;;
9880;SDS011;4979;51.014;6.678;2023-05-14T08:43:24;20.80;;;14.55;;
9880;SDS011;4979;51.014;6.678;2023-05-14T08:45:56;14.25;;;12.50;;
9880;SDS011;4979;51.014;6.678;2023-05-14T08:48:25;14.77;;;12.77;;
9880;SDS011;4979;51.014;6.678;2023-05-14T08:50:55;14.05;;;12.65;;
9880;SDS011;4979;51.014;6.678;2023-05-14T08:53:22;13.98;;;12.52;;
9880;SDS011;4979;51.014;6.678;2023-05-14T08:55:49;13.77;;;11.50;;
9880;SDS011;4979;51.014;6.678;2023-05-14T08:58:15;13.85;;;12.15;;
9880;SDS011;4979;51.014;6.678;2023-05-14T09:00:41;13.15;;;11.70;;
9880;SDS011;4979;51.014;6.678;2023-05-14T09:03:07;13.02;;;11.68;;
9880;SDS011;4979;51.014;6.678;2023-05-14T09:05:33;12.00;;;10.63;;
9880;SDS011;4979;51.014;6.678;2023-05-14T09:07:59;13.02;;;11.38;;
9880;SDS011;4979;51.014;6.678;2023-05-14T09:10:25;17.20;;;12.13;;
9880;SDS011;4979;51.014;6.678;2023-05-14T09:12:51;13.45;;;11.55;;
9880;SDS011;4979;51.014;6.678;2023-05-14T09:15:17;12.73;;;11.43;;
9880;SDS011;4979;51.014;6.678;2023-05-14T09:17:43;13.25;;;11.95;;
9880;SDS011;4979;51.014;6.678;2023-05-14T09:20:11;13.73;;;12.25;;
9880;SDS011;4979;51.014;6.678;2023-05-14T09:22:38;14.00;;;11.55;;
9880;SDS011;4979;51.014;6.678;2023-05-14T09:25:05;11.10;;;10.00;;
9880;SDS011;4979;51.014;6.678;2023-05-14T09:27:33;9.45;;;8.52;;
9880;SDS011;4979;51.014;6.678;2023-05-14T09:30:03;11.40;;;9.77;;
9880;SDS011;4979;51.014;6.678;2023-05-14T09:32:36;13.25;;;10.27;;
9880;SDS011;4979;51.014;6.678;2023-05-14T09:35:36;13.57;;;11.32;;
9880;SDS011;4979;51.014;6.678;2023-05-14T09:37:56;12.70;;;11.25;;
9880;SDS011;4979;51.014;6.678;2023-05-14T09:40:22;10.93;;;9.82;;
9880;SDS011;4979;51.014;6.678;2023-05-14T09:42:48;12.57;;;9.32;;
9880;SDS011;4979;51.014;6.678;2023-05-14T09:45:14;12.43;;;9.07;;
9880;SDS011;4979;51.014;6.678;2023-05-14T09:47:40;12.02;;;10.55;;
9880;SDS011;4979;51.014;6.678;2023-05-14T09:50:06;13.00;;;10.85;;
9880;SDS011;4979;51.014;6.678;2023-05-14T09:52:33;10.70;;;9.60;;
9880;SDS011;4979;51.014;6.678;2023-05-14T09:54:59;12.55;;;10.27;;
9880;SDS011;4979;51.014;6.678;2023-05-14T09:57:25;11.77;;;10.57;;
9880;SDS011;4979;51.014;6.678;2023-05-14T09:59:51;10.73;;;9.73;;
9880;SDS011;4979;51.014;6.678;2023-05-14T10:04:47;12.18;;;10.90;;
9880;SDS011;4979;51.014;6.678;2023-05-14T10:10:21;13.30;;;9.32;;
9880;SDS011;4979;51.014;6.678;2023-05-14T10:12:55;13.02;;;9.88;;
9880;SDS011;4979;51.014;6.678;2023-05-14T10:15:56;15.05;;;9.95;;
9880;SDS011;4979;51.014;6.678;2023-05-14T10:18:25;12.98;;;9.32;;
9880;SDS011;4979;51.014;6.678;2023-05-14T10:21:03;12.90;;;9.52;;
9880;SDS011;4979;51.014;6.678;2023-05-14T10:23:29;12.43;;;10.23;;
9880;SDS011;4979;51.014;6.678;2023-05-14T10:25:58;13.02;;;10.50;;
9880;SDS011;4979;51.014;6.678;2023-05-14T10:28:25;11.15;;;9.90;;
9880;SDS011;4979;51.014;6.678;2023-05-14T10:30:51;12.30;;;10.77;;
9880;SDS011;4979;51.014;6.678;2023-05-14T10:33:18;12.00;;;10.63;;
9880;SDS011;4979;51.014;6.678;2023-05-14T10:36:03;13.82;;;11.30;;
9880;SDS011;4979;51.014;6.678;2023-05-14T10:38:38;16.90;;;12.35;;
9880;SDS011;4979;51.014;6.678;2023-05-14T10:41:05;13.77;;;11.57;;
9880;SDS011;4979;51.014;6.678;2023-05-14T10:43:38;15.88;;;13.45;;
9880;SDS011;4979;51.014;6.678;2023-05-14T10:46:05;12.55;;;10.93;;
9880;SDS011;4979;51.014;6.678;2023-05-14T10:48:32;13.55;;;11.05;;
9880;SDS011;4979;51.014;6.678;2023-05-14T10:50:58;13.45;;;10.57;;
9880;SDS011;4979;51.014;6.678;2023-05-14T10:53:30;13.40;;;9.75;;
9880;SDS011;4979;51.014;6.678;2023-05-14T10:55:56;13.40;;;8.80;;
9880;SDS011;4979;51.014;6.678;2023-05-14T10:58:22;10.80;;;9.02;;
9880;SDS011;4979;51.014;6.678;2023-05-14T11:00:48;10.57;;;9.50;;
9880;SDS011;4979;51.014;6.678;2023-05-14T11:03:19;15.50;;;9.32;;
9880;SDS011;4979;51.014;6.678;2023-05-14T11:05:45;17.23;;;10.35;;
9880;SDS011;4979;51.014;6.678;2023-05-14T11:08:12;13.50;;;9.27;;
9880;SDS011;4979;51.014;6.678;2023-05-14T11:10:38;10.68;;;8.77;;
9880;SDS011;4979;51.014;6.678;2023-05-14T11:13:04;14.25;;;10.45;;
9880;SDS011;4979;51.014;6.678;2023-05-14T11:15:30;11.65;;;9.20;;
9880;SDS011;4979;51.014;6.678;2023-05-14T11:17:56;8.95;;;8.05;;
9880;SDS011;4979;51.014;6.678;2023-05-14T11:20:22;13.60;;;8.48;;
9880;SDS011;4979;51.014;6.678;2023-05-14T11:22:48;8.52;;;7.63;;
9880;SDS011;4979;51.014;6.678;2023-05-14T11:25:23;9.10;;;7.72;;
9880;SDS011;4979;51.014;6.678;2023-05-14T11:27:50;7.97;;;7.18;;
9880;SDS011;4979;51.014;6.678;2023-05-14T11:30:17;8.82;;;7.07;;
9880;SDS011;4979;51.014;6.678;2023-05-14T11:32:44;11.15;;;8.82;;
9880;SDS011;4979;51.014;6.678;2023-05-14T11:35:11;12.40;;;8.88;;
9880;SDS011;4979;51.014;6.678;2023-05-14T11:37:37;10.43;;;8.55;;
9880;SDS011;4979;51.014;6.678;2023-05-14T11:40:05;12.57;;;8.63;;
9880;SDS011;4979;51.014;6.678;2023-05-14T11:42:33;10.20;;;8.32;;
9880;SDS011;4979;51.014;6.678;2023-05-14T11:45:01;10.25;;;7.55;;
9880;SDS011;4979;51.014;6.678;2023-05-14T11:47:28;8.35;;;6.40;;
9880;SDS011;4979;51.014;6.678;2023-05-14T11:49:56;6.97;;;6.28;;
9880;SDS011;4979;51.014;6.678;2023-05-14T11:52:22;9.30;;;6.07;;
9880;SDS011;4979;51.014;6.678;2023-05-14T11:54:49;11.00;;;6.10;;
9880;SDS011;4979;51.014;6.678;2023-05-14T11:57:16;7.97;;;6.00;;
9880;SDS011;4979;51.014;6.678;2023-05-14T11:59:43;6.65;;;5.93;;
9880;SDS011;4979;51.014;6.678;2023-05-14T12:02:16;11.02;;;5.90;;
9880;SDS011;4979;51.014;6.678;2023-05-14T12:04:43;6.95;;;5.60;;
9880;SDS011;4979;51.014;6.678;2023-05-14T12:07:14;7.60;;;5.60;;
9880;SDS011;4979;51.014;6.678;2023-05-14T12:09:49;6.50;;;5.80;;
9880;SDS011;4979;51.014;6.678;2023-05-14T12:12:16;7.22;;;5.50;;
9880;SDS011;4979;51.014;6.678;2023-05-14T12:14:44;6.93;;;6.10;;
9880;SDS011;4979;51.014;6.678;2023-05-14T12:17:19;6.60;;;6.00;;
9880;SDS011;4979;51.014;6.678;2023-05-14T12:19:52;6.15;;;4.82;;
9880;SDS011;4979;51.014;6.678;2023-05-14T12:22:19;7.57;;;5.13;;
9880;SDS011;4979;51.014;6.678;2023-05-14T12:24:55;11.52;;;4.90;;
9880;SDS011;4979;51.014;6.678;2023-05-14T12:27:22;7.22;;;4.35;;
9880;SDS011;4979;51.014;6.678;2023-05-14T12:29:56;5.60;;;4.03;;
9880;SDS011;4979;51.014;6.678;2023-05-14T12:32:27;5.80;;;3.92;;
9880;SDS011;4979;51.014;6.678;2023-05-14T12:34:56;3.80;;;3.38;;
9880;SDS011;4979;51.014;6.678;2023-05-14T12:37:21;4.05;;;3.33;;
9880;SDS011;4979;51.014;6.678;2023-05-14T12:39:47;4.35;;;3.50;;
9880;SDS011;4979;51.014;6.678;2023-05-14T12:42:13;8.13;;;3.78;;
9880;SDS011;4979;51.014;6.678;2023-05-14T12:44:40;8.50;;;3.97;;
9880;SDS011;4979;51.014;6.678;2023-05-14T12:47:05;11.20;;;5.90;;
9880;SDS011;4979;51.014;6.678;2023-05-14T12:49:31;7.05;;;5.57;;
9880;SDS011;4979;51.014;6.678;2023-05-14T12:51:57;7.63;;;5.18;;
9880;SDS011;4979;51.014;6.678;2023-05-14T12:54:23;10.50;;;4.57;;
9880;SDS011;4979;51.014;6.678;2023-05-14T12:56:49;7.10;;;5.05;;
9880;SDS011;4979;51.014;6.678;2023-05-14T12:59:15;9.27;;;5.20;;
9880;SDS011;4979;51.014;6.678;2023-05-14T13:01:40;7.10;;;5.35;;
9880;SDS011;4979;51.014;6.678;2023-05-14T13:04:06;8.95;;;5.57;;
9880;SDS011;4979;51.014;6.678;2023-05-14T13:06:36;7.80;;;4.93;;
9880;SDS011;4979;51.014;6.678;2023-05-14T13:09:02;8.70;;;5.68;;
9880;SDS011;4979;51.014;6.678;2023-05-14T13:11:28;6.65;;;5.30;;
9880;SDS011;4979;51.014;6.678;2023-05-14T13:13:55;9.40;;;4.82;;
9880;SDS011;4979;51.014;6.678;2023-05-14T13:16:22;7.43;;;5.45;;
9880;SDS011;4979;51.014;6.678;2023-05-14T13:18:48;7.60;;;4.60;;
9880;SDS011;4979;51.014;6.678;2023-05-14T13:21:14;9.20;;;5.32;;
9880;SDS011;4979;51.014;6.678;2023-05-14T13:23:39;6.95;;;4.18;;
9880;SDS011;4979;51.014;6.678;2023-05-14T13:26:05;12.30;;;4.45;;
9880;SDS011;4979;51.014;6.678;2023-05-14T13:28:31;10.68;;;4.07;;
9880;SDS011;4979;51.014;6.678;2023-05-14T13:31:02;10.40;;;4.53;;
9880;SDS011;4979;51.014;6.678;2023-05-14T13:33:35;8.60;;;3.97;;
9880;SDS011;4979;51.014;6.678;2023-05-14T13:36:02;4.85;;;3.28;;
9880;SDS011;4979;51.014;6.678;2023-05-14T13:38:28;7.28;;;3.75;;
9880;SDS011;4979;51.014;6.678;2023-05-14T13:40:54;7.00;;;3.53;;
9880;SDS011;4979;51.014;6.678;2023-05-14T13:43:21;5.53;;;3.30;;
9880;SDS011;4979;51.014;6.678;2023-05-14T13:45:48;4.32;;;3.30;;
9880;SDS011;4979;51.014;6.678;2023-05-14T13:48:14;6.88;;;3.10;;
9880;SDS011;4979;51.014;6.678;2023-05-14T13:50:40;6.28;;;3.55;;
9880;SDS011;4979;51.014;6.678;2023-05-14T13:53:06;6.18;;;4.05;;
9880;SDS011;4979;51.014;6.678;2023-05-14T13:55:31;6.75;;;4.03;;
9880;SDS011;4979;51.014;6.678;2023-05-14T13:57:57;5.50;;;3.60;;
9880;SDS011;4979;51.014;6.678;2023-05-14T14:00:23;4.40;;;3.60;;
9880;SDS011;4979;51.014;6.678;2023-05-14T14:02:49;4.35;;;3.95;;
9880;SDS011;4979;51.014;6.678;2023-05-14T14:05:14;4.13;;;3.40;;
9880;SDS011;4979;51.014;6.678;2023-05-14T14:07:40;3.95;;;3.15;;
9880;SDS011;4979;51.014;6.678;2023-05-14T14:10:06;3.83;;;3.15;;
9880;SDS011;4979;51.014;6.678;2023-05-14T14:12:32;9.80;;;4.05;;
9880;SDS011;4979;51.014;6.678;2023-05-14T14:14:58;5.00;;;3.50;;
9880;SDS011;4979;51.014;6.678;2023-05-14T14:17:25;7.45;;;3.17;;
9880;SDS011;4979;51.014;6.678;2023-05-14T14:19:50;6.00;;;3.10;;
9880;SDS011;4979;51.014;6.678;2023-05-14T14:22:16;5.80;;;3.40;;
9880;SDS011;4979;51.014;6.678;2023-05-14T14:24:42;5.30;;;3.05;;
9880;SDS011;4979;51.014;6.678;2023-05-14T14:27:07;6.78;;;3.38;;
9880;SDS011;4979;51.014;6.678;2023-05-14T14:29:33;6.32;;;3.05;;
9880;SDS011;4979;51.014;6.678;2023-05-14T14:32:00;3.83;;;2.80;;
9880;SDS011;4979;51.014;6.678;2023-05-14T14:34:26;4.80;;;2.50;;
9880;SDS011;4979;51.014;6.678;2023-05-14T14:36:52;3.10;;;2.80;;
9880;SDS011;4979;51.014;6.678;2023-05-14T14:39:17;6.18;;;2.90;;
9880;SDS011;4979;51.014;6.678;2023-05-14T14:41:43;3.70;;;3.10;;
9880;SDS011;4979;51.014;6.678;2023-05-14T14:44:08;5.22;;;2.58;;
9880;SDS011;4979;51.014;6.678;2023-05-14T14:46:34;4.93;;;2.85;;
9880;SDS011;4979;51.014;6.678;2023-05-14T14:49:00;4.75;;;3.15;;
9880;SDS011;4979;51.014;6.678;2023-05-14T14:51:26;7.47;;;3.00;;
9880;SDS011;4979;51.014;6.678;2023-05-14T14:53:52;4.90;;;2.88;;
9880;SDS011;4979;51.014;6.678;2023-05-14T14:56:18;3.20;;;2.50;;
9880;SDS011;4979;51.014;6.678;2023-05-14T14:58:43;2.92;;;2.70;;
9880;SDS011;4979;51.014;6.678;2023-05-14T15:01:09;4.90;;;2.83;;
9880;SDS011;4979;51.014;6.678;2023-05-14T15:03:35;17.75;;;2.92;;
9880;SDS011;4979;51.014;6.678;2023-05-14T15:06:01;5.03;;;3.03;;
9880;SDS011;4979;51.014;6.678;2023-05-14T15:08:27;5.00;;;3.00;;